sensor_id;sensor_type;location;lat;lon;timestamp;temperature;humidity
2130;DHT22;1071;52.544;13.374;2023-03-15T00:01:35;6.20;99.90
2130;DHT22;1071;52.544;13.374;2023-03-15T00:04:04;6.20;99.90
2130;DHT22;1071;52.544;13.374;2023-03-15T00:06:32;6.20;99.90
2130;DHT22;1071;52.544;13.374;2023-03-15T00:09:00;6.10;99.90
2130;DHT22;1071;52.544;13.374;2023-03-15T00:11:28;6.10;99.90
2130;DHT22;1071;52.544;13.374;2023-03-15T00:13:57;6.10;99.90
2130;DHT22;1071;52.544;13.374;2023-03-15T00:16:28;6.10;99.90
2130;DHT22;1071;52.544;13.374;2023-03-15T00:18:57;6.10;99.90
2130;DHT22;1071;52.544;13.374;2023-03-15T00:21:26;6.10;99.90
2130;DHT22;1071;52.544;13.374;2023-03-15T00:23:55;6.10;99.90
2130;DHT22;1071;52.544;13.374;2023-03-15T00:26:22;6.00;99.90
2130;DHT22;1071;52.544;13.374;2023-03-15T00:28:49;6.00;99.90
2130;DHT22;1071;52.544;13.374;2023-03-15T00:31:18;6.00;99.90
2130;DHT22;1071;52.544;13.374;2023-03-15T00:33:46;6.10;99.90
2130;DHT22;1071;52.544;13.374;2023-03-15T00:36:14;6.10;99.90
2130;DHT22;1071;52.544;13.374;2023-03-15T00:38:45;6.10;99.90
2130;DHT22;1071;52.544;13.374;2023-03-15T00:41:15;6.10;99.90
2130;DHT22;1071;52.544;13.374;2023-03-15T00:43:43;6.10;99.90
2130;DHT22;1071;52.544;13.374;2023-03-15T00:46:12;6.10;99.90
2130;DHT22;1071;52.544;13.374;2023-03-15T00:48:39;6.10;99.90
2130;DHT22;1071;52.544;13.374;2023-03-15T00:51:08;6.10;99.90
2130;DHT22;1071;52.544;13.374;2023-03-15T00:53:44;6.10;99.90
2130;DHT22;1071;52.544;13.374;2023-03-15T00:56:13;6.00;99.90
2130;DHT22;1071;52.544;13.374;2023-03-15T00:58:41;6.10;99.90
2130;DHT22;1071;52.544;13.374;2023-03-15T01:01:10;6.00;99.90
2130;DHT22;1071;52.544;13.374;2023-03-15T01:03:38;6.00;99.90
2130;DHT22;1071;52.544;13.374;2023-03-15T01:06:06;6.00;99.90
2130;DHT22;1071;52.544;13.374;2023-03-15T01:08:33;6.00;99.90
2130;DHT22;1071;52.544;13.374;2023-03-15T01:11:02;6.00;99.90
2130;DHT22;1071;52.544;13.374;2023-03-15T01:13:30;6.00;99.90
2130;DHT22;1071;52.544;13.374;2023-03-15T01:15:57;5.90;99.90
2130;DHT22;1071;52.544;13.374;2023-03-15T01:18:24;5.90;99.90
2130;DHT22;1071;52.544;13.374;2023-03-15T01:20:51;6.00;99.90
2130;DHT22;1071;52.544;13.374;2023-03-15T01:23:19;6.00;99.90
2130;DHT22;1071;52.544;13.374;2023-03-15T01:25:46;5.90;99.90
2130;DHT22;1071;52.544;13.374;2023-03-15T01:28:15;5.90;99.90
2130;DHT22;1071;52.544;13.374;2023-03-15T01:30:48;5.90;99.90
2130;DHT22;1071;52.544;13.374;2023-03-15T01:33:15;5.90;99.90
2130;DHT22;1071;52.544;13.374;2023-03-15T01:35:46;5.90;99.90
2130;DHT22;1071;52.544;13.374;2023-03-15T01:38:13;5.90;99.90
2130;DHT22;1071;52.544;13.374;2023-03-15T01:40:41;5.90;99.90
2130;DHT22;1071;52.544;13.374;2023-03-15T01:43:15;5.90;99.90
2130;DHT22;1071;52.544;13.374;2023-03-15T01:48:52;5.90;99.90
2130;DHT22;1071;52.544;13.374;2023-03-15T01:51:29;5.90;99.90
2130;DHT22;1071;52.544;13.374;2023-03-15T01:53:59;5.90;99.90
2130;DHT22;1071;52.544;13.374;2023-03-15T01:56:30;5.90;99.90
2130;DHT22;1071;52.544;13.374;2023-03-15T01:59:01;5.90;99.90
2130;DHT22;1071;52.544;13.374;2023-03-15T02:01:30;5.80;99.90
2130;DHT22;1071;52.544;13.374;2023-03-15T02:04:02;5.90;99.90
2130;DHT22;1071;52.544;13.374;2023-03-15T02:06:32;5.80;99.90
2130;DHT22;1071;52.544;13.374;2023-03-15T02:09:03;5.80;99.90
2130;DHT22;1071;52.544;13.374;2023-03-15T02:11:33;5.80;99.90
2130;DHT22;1071;52.544;13.374;2023-03-15T02:14:02;5.80;99.90
2130;DHT22;1071;52.544;13.374;2023-03-15T02:16:30;5.80;99.90
2130;DHT22;1071;52.544;13.374;2023-03-15T02:18:58;5.80;99.90
2130;DHT22;1071;52.544;13.374;2023-03-15T02:21:37;5.80;99.90
2130;DHT22;1071;52.544;13.374;2023-03-15T02:24:17;5.80;99.90
2130;DHT22;1071;52.544;13.374;2023-03-15T02:26:51;5.80;99.90
2130;DHT22;1071;52.544;13.374;2023-03-15T02:29:22;5.70;99.90
2130;DHT22;1071;52.544;13.374;2023-03-15T02:31:50;5.70;99.90
2130;DHT22;1071;52.544;13.374;2023-03-15T02:34:18;5.70;99.90
2130;DHT22;1071;52.544;13.374;2023-03-15T02:36:50;5.70;99.90
2130;DHT22;1071;52.544;13.374;2023-03-15T02:39:19;5.70;99.90
2130;DHT22;1071;52.544;13.374;2023-03-15T02:41:50;5.70;99.90
2130;DHT22;1071;52.544;13.374;2023-03-15T02:44:20;5.60;99.90
2130;DHT22;1071;52.544;13.374;2023-03-15T02:46:50;5.60;99.90
2130;DHT22;1071;52.544;13.374;2023-03-15T02:49:21;5.60;99.90
2130;DHT22;1071;52.544;13.374;2023-03-15T02:51:49;5.70;99.90
2130;DHT22;1071;52.544;13.374;2023-03-15T02:54:16;5.60;99.90
2130;DHT22;1071;52.544;13.374;2023-03-15T02:56:43;5.60;99.90
2130;DHT22;1071;52.544;13.374;2023-03-15T02:59:13;5.50;99.90
2130;DHT22;1071;52.544;13.374;2023-03-15T03:01:42;5.50;99.90
2130;DHT22;1071;52.544;13.374;2023-03-15T03:04:12;5.50;99.90
2130;DHT22;1071;52.544;13.374;2023-03-15T03:06:39;5.50;99.90
2130;DHT22;1071;52.544;13.374;2023-03-15T03:09:08;5.50;99.90
2130;DHT22;1071;52.544;13.374;2023-03-15T03:11:36;5.50;99.90
2130;DHT22;1071;52.544;13.374;2023-03-15T03:14:03;5.50;99.90
2130;DHT22;1071;52.544;13.374;2023-03-15T03:16:31;5.50;99.90
2130;DHT22;1071;52.544;13.374;2023-03-15T03:19:00;5.50;99.90
2130;DHT22;1071;52.544;13.374;2023-03-15T03:21:27;5.50;99.90
2130;DHT22;1071;52.544;13.374;2023-03-15T03:23:54;5.50;99.90
2130;DHT22;1071;52.544;13.374;2023-03-15T03:26:21;5.50;99.90
2130;DHT22;1071;52.544;13.374;2023-03-15T03:28:53;5.50;99.90
2130;DHT22;1071;52.544;13.374;2023-03-15T03:31:26;5.50;99.90
2130;DHT22;1071;52.544;13.374;2023-03-15T03:33:55;5.50;99.90
2130;DHT22;1071;52.544;13.374;2023-03-15T03:36:23;5.50;99.90
2130;DHT22;1071;52.544;13.374;2023-03-15T03:38:51;5.50;99.90
2130;DHT22;1071;52.544;13.374;2023-03-15T03:41:19;5.60;99.90
2130;DHT22;1071;52.544;13.374;2023-03-15T03:43:46;5.60;99.90
2130;DHT22;1071;52.544;13.374;2023-03-15T03:46:14;5.60;99.90
2130;DHT22;1071;52.544;13.374;2023-03-15T03:48:46;5.60;99.90
2130;DHT22;1071;52.544;13.374;2023-03-15T03:51:13;5.60;99.90
2130;DHT22;1071;52.544;13.374;2023-03-15T03:53:41;5.60;99.90
2130;DHT22;1071;52.544;13.374;2023-03-15T03:56:08;5.70;99.90
2130;DHT22;1071;52.544;13.374;2023-03-15T03:58:36;5.70;99.90
2130;DHT22;1071;52.544;13.374;2023-03-15T04:01:03;5.60;99.90
2130;DHT22;1071;52.544;13.374;2023-03-15T04:03:30;5.70;99.90
2130;DHT22;1071;52.544;13.374;2023-03-15T04:05:58;5.60;99.90
2130;DHT22;1071;52.544;13.374;2023-03-15T04:08:26;5.60;99.90
2130;DHT22;1071;52.544;13.374;2023-03-15T04:10:57;5.60;99.90
2130;DHT22;1071;52.544;13.374;2023-03-15T04:13:29;5.60;99.90
2130;DHT22;1071;52.544;13.374;2023-03-15T04:15:56;5.60;99.90
2130;DHT22;1071;52.544;13.374;2023-03-15T04:18:26;5.50;99.90
2130;DHT22;1071;52.544;13.374;2023-03-15T04:20:54;5.60;99.90
2130;DHT22;1071;52.544;13.374;2023-03-15T04:23:22;5.50;99.90
2130;DHT22;1071;52.544;13.374;2023-03-15T04:25:50;5.50;99.90
2130;DHT22;1071;52.544;13.374;2023-03-15T04:28:20;5.50;99.90
2130;DHT22;1071;52.544;13.374;2023-03-15T04:30:48;5.50;99.90
2130;DHT22;1071;52.544;13.374;2023-03-15T04:33:16;5.50;99.90
2130;DHT22;1071;52.544;13.374;2023-03-15T04:35:43;5.50;99.90
2130;DHT22;1071;52.544;13.374;2023-03-15T04:38:16;5.50;99.90
2130;DHT22;1071;52.544;13.374;2023-03-15T04:40:43;5.50;99.90
2130;DHT22;1071;52.544;13.374;2023-03-15T04:43:10;5.50;99.90
2130;DHT22;1071;52.544;13.374;2023-03-15T04:45:38;5.50;99.90
2130;DHT22;1071;52.544;13.374;2023-03-15T04:48:06;5.50;99.90
2130;DHT22;1071;52.544;13.374;2023-03-15T04:50:33;5.40;99.90
2130;DHT22;1071;52.544;13.374;2023-03-15T04:53:00;5.40;99.90
2130;DHT22;1071;52.544;13.374;2023-03-15T04:55:27;5.40;99.90
2130;DHT22;1071;52.544;13.374;2023-03-15T04:57:54;5.40;99.90
2130;DHT22;1071;52.544;13.374;2023-03-15T05:00:22;5.40;99.90
2130;DHT22;1071;52.544;13.374;2023-03-15T05:02:51;5.40;99.90
2130;DHT22;1071;52.544;13.374;2023-03-15T05:05:24;5.40;99.90
2130;DHT22;1071;52.544;13.374;2023-03-15T05:07:52;5.40;99.90
2130;DHT22;1071;52.544;13.374;2023-03-15T05:10:19;5.40;99.90
2130;DHT22;1071;52.544;13.374;2023-03-15T05:12:47;5.40;99.90
2130;DHT22;1071;52.544;13.374;2023-03-15T05:15:14;5.40;99.90
2130;DHT22;1071;52.544;13.374;2023-03-15T05:17:41;5.40;99.90
2130;DHT22;1071;52.544;13.374;2023-03-15T05:20:12;5.40;99.90
2130;DHT22;1071;52.544;13.374;2023-03-15T05:22:41;5.40;99.90
2130;DHT22;1071;52.544;13.374;2023-03-15T05:25:09;5.40;99.90
2130;DHT22;1071;52.544;13.374;2023-03-15T05:27:37;5.40;99.90
2130;DHT22;1071;52.544;13.374;2023-03-15T05:30:05;5.40;99.90
2130;DHT22;1071;52.544;13.374;2023-03-15T05:32:33;5.40;99.90
2130;DHT22;1071;52.544;13.374;2023-03-15T05:35:05;5.40;99.90
2130;DHT22;1071;52.544;13.374;2023-03-15T05:37:34;5.40;99.90
2130;DHT22;1071;52.544;13.374;2023-03-15T05:40:02;5.40;99.90
2130;DHT22;1071;52.544;13.374;2023-03-15T05:42:32;5.50;99.90
2130;DHT22;1071;52.544;13.374;2023-03-15T05:44:59;5.50;99.90
2130;DHT22;1071;52.544;13.374;2023-03-15T05:47:26;5.50;99.90
2130;DHT22;1071;52.544;13.374;2023-03-15T05:49:53;5.50;99.90
2130;DHT22;1071;52.544;13.374;2023-03-15T05:52:20;5.50;99.90
2130;DHT22;1071;52.544;13.374;2023-03-15T05:54:48;5.60;99.90
2130;DHT22;1071;52.544;13.374;2023-03-15T05:57:15;5.60;99.90
2130;DHT22;1071;52.544;13.374;2023-03-15T05:59:43;5.60;99.90
2130;DHT22;1071;52.544;13.374;2023-03-15T06:02:10;5.70;99.90
2130;DHT22;1071;52.544;13.374;2023-03-15T06:04:37;5.70;99.90
2130;DHT22;1071;52.544;13.374;2023-03-15T06:07:04;5.70;99.90
2130;DHT22;1071;52.544;13.374;2023-03-15T06:09:32;5.70;99.90
2130;DHT22;1071;52.544;13.374;2023-03-15T06:12:00;5.70;99.90
2130;DHT22;1071;52.544;13.374;2023-03-15T06:14:27;5.70;99.90
2130;DHT22;1071;52.544;13.374;2023-03-15T06:16:54;5.70;99.90
2130;DHT22;1071;52.544;13.374;2023-03-15T06:19:22;5.80;99.90
2130;DHT22;1071;52.544;13.374;2023-03-15T06:21:49;5.80;99.90
2130;DHT22;1071;52.544;13.374;2023-03-15T06:24:16;5.80;99.90
2130;DHT22;1071;52.544;13.374;2023-03-15T06:26:43;5.90;99.90
2130;DHT22;1071;52.544;13.374;2023-03-15T06:29:11;5.90;99.90
2130;DHT22;1071;52.544;13.374;2023-03-15T06:31:38;5.90;99.90
2130;DHT22;1071;52.544;13.374;2023-03-15T06:34:05;5.90;99.90
2130;DHT22;1071;52.544;13.374;2023-03-15T06:36:33;5.90;99.90
2130;DHT22;1071;52.544;13.374;2023-03-15T06:39:01;6.00;99.90
2130;DHT22;1071;52.544;13.374;2023-03-15T06:41:37;5.90;99.90
2130;DHT22;1071;52.544;13.374;2023-03-15T06:44:06;5.90;99.90
2130;DHT22;1071;52.544;13.374;2023-03-15T06:46:34;6.00;99.90
2130;DHT22;1071;52.544;13.374;2023-03-15T06:49:01;5.90;99.90
2130;DHT22;1071;52.544;13.374;2023-03-15T06:51:29;5.90;99.90
2130;DHT22;1071;52.544;13.374;2023-03-15T06:53:55;5.90;99.90
2130;DHT22;1071;52.544;13.374;2023-03-15T06:56:22;5.90;99.90
2130;DHT22;1071;52.544;13.374;2023-03-15T06:58:49;5.90;99.90
2130;DHT22;1071;52.544;13.374;2023-03-15T07:01:16;5.90;99.90
2130;DHT22;1071;52.544;13.374;2023-03-15T07:03:45;5.90;99.90
2130;DHT22;1071;52.544;13.374;2023-03-15T07:06:12;6.00;99.90
2130;DHT22;1071;52.544;13.374;2023-03-15T07:08:39;6.00;99.90
2130;DHT22;1071;52.544;13.374;2023-03-15T07:11:06;6.00;99.90
2130;DHT22;1071;52.544;13.374;2023-03-15T07:13:33;6.00;99.90
2130;DHT22;1071;52.544;13.374;2023-03-15T07:16:00;6.00;99.90
2130;DHT22;1071;52.544;13.374;2023-03-15T07:18:27;6.00;99.90
2130;DHT22;1071;52.544;13.374;2023-03-15T07:20:56;6.00;99.90
2130;DHT22;1071;52.544;13.374;2023-03-15T07:23:23;6.00;99.90
2130;DHT22;1071;52.544;13.374;2023-03-15T07:25:51;6.10;99.90
2130;DHT22;1071;52.544;13.374;2023-03-15T07:28:18;6.10;99.90
2130;DHT22;1071;52.544;13.374;2023-03-15T07:30:55;6.10;99.90
2130;DHT22;1071;52.544;13.374;2023-03-15T07:33:23;6.20;99.90
2130;DHT22;1071;52.544;13.374;2023-03-15T07:35:51;6.20;99.90
2130;DHT22;1071;52.544;13.374;2023-03-15T07:38:22;6.20;99.90
2130;DHT22;1071;52.544;13.374;2023-03-15T07:40:51;6.20;99.90
2130;DHT22;1071;52.544;13.374;2023-03-15T07:43:18;6.30;99.90
2130;DHT22;1071;52.544;13.374;2023-03-15T07:45:45;6.20;99.90
2130;DHT22;1071;52.544;13.374;2023-03-15T07:48:12;6.30;99.90
2130;DHT22;1071;52.544;13.374;2023-03-15T07:50:40;6.30;99.90
2130;DHT22;1071;52.544;13.374;2023-03-15T07:53:08;6.30;99.90
2130;DHT22;1071;52.544;13.374;2023-03-15T07:55:36;6.30;99.90
2130;DHT22;1071;52.544;13.374;2023-03-15T07:58:03;6.40;99.90
2130;DHT22;1071;52.544;13.374;2023-03-15T08:00:30;6.40;99.90
2130;DHT22;1071;52.544;13.374;2023-03-15T08:02:58;6.40;99.90
2130;DHT22;1071;52.544;13.374;2023-03-15T08:05:25;6.40;99.90
2130;DHT22;1071;52.544;13.374;2023-03-15T08:07:53;6.40;99.90
2130;DHT22;1071;52.544;13.374;2023-03-15T08:10:21;6.50;99.90
2130;DHT22;1071;52.544;13.374;2023-03-15T08:12:49;6.50;99.90
2130;DHT22;1071;52.544;13.374;2023-03-15T08:15:18;6.50;99.90
2130;DHT22;1071;52.544;13.374;2023-03-15T08:17:46;6.50;99.90
2130;DHT22;1071;52.544;13.374;2023-03-15T08:20:13;6.50;99.90
2130;DHT22;1071;52.544;13.374;2023-03-15T08:22:42;6.50;99.90
2130;DHT22;1071;52.544;13.374;2023-03-15T08:25:11;6.50;99.90
2130;DHT22;1071;52.544;13.374;2023-03-15T08:27:38;6.50;99.90
2130;DHT22;1071;52.544;13.374;2023-03-15T08:30:09;6.60;99.90
2130;DHT22;1071;52.544;13.374;2023-03-15T08:32:37;6.60;99.90
2130;DHT22;1071;52.544;13.374;2023-03-15T08:35:06;6.60;99.90
2130;DHT22;1071;52.544;13.374;2023-03-15T08:37:35;6.60;99.90
2130;DHT22;1071;52.544;13.374;2023-03-15T08:40:02;6.70;99.90
2130;DHT22;1071;52.544;13.374;2023-03-15T08:42:34;6.70;99.90
2130;DHT22;1071;52.544;13.374;2023-03-15T08:45:02;6.70;99.90
2130;DHT22;1071;52.544;13.374;2023-03-15T08:47:33;6.70;99.90
2130;DHT22;1071;52.544;13.374;2023-03-15T08:50:00;6.60;99.90
2130;DHT22;1071;52.544;13.374;2023-03-15T08:52:30;6.60;99.90
2130;DHT22;1071;52.544;13.374;2023-03-15T08:54:57;6.60;99.90
2130;DHT22;1071;52.544;13.374;2023-03-15T08:57:28;6.50;99.90
2130;DHT22;1071;52.544;13.374;2023-03-15T08:59:57;6.60;99.90
2130;DHT22;1071;52.544;13.374;2023-03-15T09:02:24;6.60;99.90
2130;DHT22;1071;52.544;13.374;2023-03-15T09:04:53;6.60;99.90
2130;DHT22;1071;52.544;13.374;2023-03-15T09:07:20;6.50;99.90
2130;DHT22;1071;52.544;13.374;2023-03-15T09:09:47;6.50;99.90
2130;DHT22;1071;52.544;13.374;2023-03-15T09:12:15;6.50;99.90
2130;DHT22;1071;52.544;13.374;2023-03-15T09:14:42;6.50;99.90
2130;DHT22;1071;52.544;13.374;2023-03-15T09:17:09;6.50;99.90
2130;DHT22;1071;52.544;13.374;2023-03-15T09:19:42;6.50;99.90
2130;DHT22;1071;52.544;13.374;2023-03-15T09:22:11;6.50;99.90
2130;DHT22;1071;52.544;13.374;2023-03-15T09:24:38;6.50;99.90
2130;DHT22;1071;52.544;13.374;2023-03-15T09:27:05;6.50;99.90
2130;DHT22;1071;52.544;13.374;2023-03-15T09:29:32;6.60;99.90
2130;DHT22;1071;52.544;13.374;2023-03-15T09:31:59;6.60;99.90
2130;DHT22;1071;52.544;13.374;2023-03-15T09:34:27;6.70;99.90
2130;DHT22;1071;52.544;13.374;2023-03-15T09:36:54;6.70;99.90
2130;DHT22;1071;52.544;13.374;2023-03-15T09:39:22;6.80;99.90
2130;DHT22;1071;52.544;13.374;2023-03-15T09:41:51;6.80;99.90
2130;DHT22;1071;52.544;13.374;2023-03-15T09:44:38;6.90;99.90
2130;DHT22;1071;52.544;13.374;2023-03-15T09:47:18;6.90;99.90
2130;DHT22;1071;52.544;13.374;2023-03-15T09:49:49;7.00;99.90
2130;DHT22;1071;52.544;13.374;2023-03-15T09:52:34;7.10;99.90
2130;DHT22;1071;52.544;13.374;2023-03-15T09:55:11;7.20;99.90
2130;DHT22;1071;52.544;13.374;2023-03-15T09:57:43;7.30;99.90
2130;DHT22;1071;52.544;13.374;2023-03-15T10:00:18;7.30;99.90
2130;DHT22;1071;52.544;13.374;2023-03-15T10:02:53;7.40;99.90
2130;DHT22;1071;52.544;13.374;2023-03-15T10:05:27;7.40;99.90
2130;DHT22;1071;52.544;13.374;2023-03-15T10:11:05;7.50;99.90
2130;DHT22;1071;52.544;13.374;2023-03-15T10:13:53;7.50;99.90
2130;DHT22;1071;52.544;13.374;2023-03-15T10:16:34;7.50;99.90
2130;DHT22;1071;52.544;13.374;2023-03-15T10:19:12;7.60;99.90
2130;DHT22;1071;52.544;13.374;2023-03-15T10:21:48;7.60;99.90
2130;DHT22;1071;52.544;13.374;2023-03-15T10:24:18;7.60;99.90
2130;DHT22;1071;52.544;13.374;2023-03-15T10:26:48;7.70;99.90
2130;DHT22;1071;52.544;13.374;2023-03-15T10:29:20;7.60;99.90
2130;DHT22;1071;52.544;13.374;2023-03-15T10:31:49;7.70;99.90
2130;DHT22;1071;52.544;13.374;2023-03-15T10:34:17;7.70;99.90
2130;DHT22;1071;52.544;13.374;2023-03-15T10:36:46;7.70;99.90
2130;DHT22;1071;52.544;13.374;2023-03-15T10:39:14;7.80;99.90
2130;DHT22;1071;52.544;13.374;2023-03-15T10:41:44;7.80;99.90
2130;DHT22;1071;52.544;13.374;2023-03-15T10:44:16;7.90;99.90
2130;DHT22;1071;52.544;13.374;2023-03-15T10:46:59;7.90;99.90
2130;DHT22;1071;52.544;13.374;2023-03-15T10:49:33;7.90;99.90
2130;DHT22;1071;52.544;13.374;2023-03-15T10:52:01;8.00;99.90
2130;DHT22;1071;52.544;13.374;2023-03-15T10:54:31;8.00;99.90
2130;DHT22;1071;52.544;13.374;2023-03-15T10:57:00;8.00;99.90
2130;DHT22;1071;52.544;13.374;2023-03-15T10:59:31;8.00;99.90
2130;DHT22;1071;52.544;13.374;2023-03-15T11:02:19;8.10;99.90
2130;DHT22;1071;52.544;13.374;2023-03-15T11:04:48;8.20;99.90
2130;DHT22;1071;52.544;13.374;2023-03-15T11:07:16;8.20;99.90
2130;DHT22;1071;52.544;13.374;2023-03-15T11:09:44;8.20;99.90
2130;DHT22;1071;52.544;13.374;2023-03-15T11:12:21;8.30;99.90
2130;DHT22;1071;52.544;13.374;2023-03-15T11:14:54;8.40;99.90
2130;DHT22;1071;52.544;13.374;2023-03-15T11:17:24;8.50;99.90
2130;DHT22;1071;52.544;13.374;2023-03-15T11:19:55;8.50;99.90
2130;DHT22;1071;52.544;13.374;2023-03-15T11:22:34;8.50;99.90
2130;DHT22;1071;52.544;13.374;2023-03-15T11:25:01;8.60;99.90
2130;DHT22;1071;52.544;13.374;2023-03-15T11:27:29;8.50;99.90
2130;DHT22;1071;52.544;13.374;2023-03-15T11:29:58;8.50;99.90
2130;DHT22;1071;52.544;13.374;2023-03-15T11:32:29;8.50;99.90
2130;DHT22;1071;52.544;13.374;2023-03-15T11:35:02;8.50;99.90
2130;DHT22;1071;52.544;13.374;2023-03-15T11:37:34;8.50;99.90
2130;DHT22;1071;52.544;13.374;2023-03-15T11:40:10;8.40;99.90
2130;DHT22;1071;52.544;13.374;2023-03-15T11:42:45;8.50;99.90
2130;DHT22;1071;52.544;13.374;2023-03-15T11:45:21;8.50;99.90
2130;DHT22;1071;52.544;13.374;2023-03-15T11:47:51;8.50;99.90
2130;DHT22;1071;52.544;13.374;2023-03-15T11:50:19;8.60;99.90
2130;DHT22;1071;52.544;13.374;2023-03-15T11:52:47;8.50;99.50
2130;DHT22;1071;52.544;13.374;2023-03-15T11:55:18;8.50;99.10
2130;DHT22;1071;52.544;13.374;2023-03-15T11:57:52;8.50;99.10
2130;DHT22;1071;52.544;13.374;2023-03-15T12:00:49;8.50;99.20
2130;DHT22;1071;52.544;13.374;2023-03-15T12:03:28;8.60;99.40
2130;DHT22;1071;52.544;13.374;2023-03-15T12:06:03;8.70;99.40
2130;DHT22;1071;52.544;13.374;2023-03-15T12:08:45;8.70;99.40
2130;DHT22;1071;52.544;13.374;2023-03-15T12:11:39;8.80;99.30
2130;DHT22;1071;52.544;13.374;2023-03-15T12:14:31;8.80;98.60
2130;DHT22;1071;52.544;13.374;2023-03-15T12:17:38;8.80;98.70
2130;DHT22;1071;52.544;13.374;2023-03-15T12:20:17;8.80;98.70
2130;DHT22;1071;52.544;13.374;2023-03-15T12:22:49;8.80;98.70
2130;DHT22;1071;52.544;13.374;2023-03-15T12:25:21;8.80;98.70
2130;DHT22;1071;52.544;13.374;2023-03-15T12:27:51;8.80;98.80
2130;DHT22;1071;52.544;13.374;2023-03-15T12:30:21;8.80;98.90
2130;DHT22;1071;52.544;13.374;2023-03-15T12:32:52;8.80;98.80
2130;DHT22;1071;52.544;13.374;2023-03-15T12:35:22;8.80;98.30
2130;DHT22;1071;52.544;13.374;2023-03-15T12:37:51;8.80;98.00
2130;DHT22;1071;52.544;13.374;2023-03-15T12:40:40;8.80;97.70
2130;DHT22;1071;52.544;13.374;2023-03-15T12:43:13;8.80;97.30
2130;DHT22;1071;52.544;13.374;2023-03-15T12:45:43;8.80;97.10
2130;DHT22;1071;52.544;13.374;2023-03-15T12:48:25;8.90;97.10
2130;DHT22;1071;52.544;13.374;2023-03-15T12:50:58;9.00;97.10
2130;DHT22;1071;52.544;13.374;2023-03-15T12:53:39;9.00;96.80
2130;DHT22;1071;52.544;13.374;2023-03-15T12:59:30;9.20;96.30
2130;DHT22;1071;52.544;13.374;2023-03-15T13:01:59;9.30;95.40
2130;DHT22;1071;52.544;13.374;2023-03-15T13:04:29;9.30;94.30
2130;DHT22;1071;52.544;13.374;2023-03-15T13:07:23;9.30;94.00
2130;DHT22;1071;52.544;13.374;2023-03-15T13:10:11;9.40;93.00
2130;DHT22;1071;52.544;13.374;2023-03-15T13:12:46;9.40;91.90
2130;DHT22;1071;52.544;13.374;2023-03-15T13:15:19;9.40;91.80
2130;DHT22;1071;52.544;13.374;2023-03-15T13:17:50;9.40;91.40
2130;DHT22;1071;52.544;13.374;2023-03-15T13:20:39;9.40;91.10
2130;DHT22;1071;52.544;13.374;2023-03-15T13:23:13;9.50;89.40
2130;DHT22;1071;52.544;13.374;2023-03-15T13:25:53;9.40;86.40
2130;DHT22;1071;52.544;13.374;2023-03-15T13:28:28;9.40;85.70
2130;DHT22;1071;52.544;13.374;2023-03-15T13:31:09;9.40;85.00
2130;DHT22;1071;52.544;13.374;2023-03-15T13:33:37;9.50;84.90
2130;DHT22;1071;52.544;13.374;2023-03-15T13:36:11;9.50;84.60
2130;DHT22;1071;52.544;13.374;2023-03-15T13:38:42;9.50;84.60
2130;DHT22;1071;52.544;13.374;2023-03-15T13:41:18;9.60;85.40
2130;DHT22;1071;52.544;13.374;2023-03-15T13:43:46;9.60;85.50
2130;DHT22;1071;52.544;13.374;2023-03-15T13:46:16;9.60;85.40
2130;DHT22;1071;52.544;13.374;2023-03-15T13:48:44;9.60;92.10
2130;DHT22;1071;52.544;13.374;2023-03-15T13:51:17;9.50;97.60
2130;DHT22;1071;52.544;13.374;2023-03-15T13:53:49;9.30;99.40
2130;DHT22;1071;52.544;13.374;2023-03-15T13:56:19;9.20;99.90
2130;DHT22;1071;52.544;13.374;2023-03-15T13:58:48;9.10;99.90
2130;DHT22;1071;52.544;13.374;2023-03-15T14:01:17;9.00;99.90
2130;DHT22;1071;52.544;13.374;2023-03-15T14:03:51;9.00;99.90
2130;DHT22;1071;52.544;13.374;2023-03-15T14:06:23;8.90;99.90
2130;DHT22;1071;52.544;13.374;2023-03-15T14:08:52;8.80;99.90
2130;DHT22;1071;52.544;13.374;2023-03-15T14:11:33;8.70;99.90
2130;DHT22;1071;52.544;13.374;2023-03-15T14:14:17;8.70;99.90
2130;DHT22;1071;52.544;13.374;2023-03-15T14:16:47;8.60;99.90
2130;DHT22;1071;52.544;13.374;2023-03-15T14:19:15;8.60;99.90
2130;DHT22;1071;52.544;13.374;2023-03-15T14:21:46;8.60;99.90
2130;DHT22;1071;52.544;13.374;2023-03-15T14:24:16;8.50;99.90
2130;DHT22;1071;52.544;13.374;2023-03-15T14:26:50;8.50;99.90
2130;DHT22;1071;52.544;13.374;2023-03-15T14:29:21;8.50;99.90
2130;DHT22;1071;52.544;13.374;2023-03-15T14:31:51;8.50;99.90
2130;DHT22;1071;52.544;13.374;2023-03-15T14:34:24;8.50;99.90
2130;DHT22;1071;52.544;13.374;2023-03-15T14:37:01;8.50;99.90
2130;DHT22;1071;52.544;13.374;2023-03-15T14:39:37;8.50;99.90
2130;DHT22;1071;52.544;13.374;2023-03-15T14:42:05;8.50;99.90
2130;DHT22;1071;52.544;13.374;2023-03-15T14:44:35;8.50;99.90
2130;DHT22;1071;52.544;13.374;2023-03-15T14:47:05;8.50;98.80
2130;DHT22;1071;52.544;13.374;2023-03-15T14:49:39;8.60;97.50
2130;DHT22;1071;52.544;13.374;2023-03-15T14:52:12;8.60;96.90
2130;DHT22;1071;52.544;13.374;2023-03-15T14:54:41;8.60;95.90
2130;DHT22;1071;52.544;13.374;2023-03-15T14:57:12;8.60;95.50
2130;DHT22;1071;52.544;13.374;2023-03-15T14:59:40;8.60;94.90
2130;DHT22;1071;52.544;13.374;2023-03-15T15:02:12;8.60;94.70
2130;DHT22;1071;52.544;13.374;2023-03-15T15:04:41;8.60;94.20
2130;DHT22;1071;52.544;13.374;2023-03-15T15:07:11;8.70;94.60
2130;DHT22;1071;52.544;13.374;2023-03-15T15:09:43;8.60;93.30
2130;DHT22;1071;52.544;13.374;2023-03-15T15:12:12;8.70;93.40
2130;DHT22;1071;52.544;13.374;2023-03-15T15:14:39;8.70;93.30
2130;DHT22;1071;52.544;13.374;2023-03-15T15:17:07;8.70;93.00
2130;DHT22;1071;52.544;13.374;2023-03-15T15:19:34;8.80;93.10
2130;DHT22;1071;52.544;13.374;2023-03-15T15:22:01;8.80;92.70
2130;DHT22;1071;52.544;13.374;2023-03-15T15:24:30;8.80;91.90
2130;DHT22;1071;52.544;13.374;2023-03-15T15:26:57;8.80;91.50
2130;DHT22;1071;52.544;13.374;2023-03-15T15:29:24;8.80;91.20
2130;DHT22;1071;52.544;13.374;2023-03-15T15:31:51;8.80;90.60
2130;DHT22;1071;52.544;13.374;2023-03-15T15:34:18;8.90;90.60
2130;DHT22;1071;52.544;13.374;2023-03-15T15:36:45;8.90;89.40
2130;DHT22;1071;52.544;13.374;2023-03-15T15:39:19;8.90;89.90
2130;DHT22;1071;52.544;13.374;2023-03-15T15:41:48;8.90;90.20
2130;DHT22;1071;52.544;13.374;2023-03-15T15:44:17;8.90;90.10
2130;DHT22;1071;52.544;13.374;2023-03-15T15:46:49;8.90;89.70
2130;DHT22;1071;52.544;13.374;2023-03-15T15:49:16;8.90;89.50
2130;DHT22;1071;52.544;13.374;2023-03-15T15:51:45;9.00;89.30
2130;DHT22;1071;52.544;13.374;2023-03-15T15:54:16;8.90;88.90
2130;DHT22;1071;52.544;13.374;2023-03-15T15:56:48;8.90;89.30
2130;DHT22;1071;52.544;13.374;2023-03-15T15:59:17;8.90;88.70
2130;DHT22;1071;52.544;13.374;2023-03-15T16:01:45;8.90;88.50
2130;DHT22;1071;52.544;13.374;2023-03-15T16:04:13;8.90;88.70
2130;DHT22;1071;52.544;13.374;2023-03-15T16:06:41;8.80;88.50
2130;DHT22;1071;52.544;13.374;2023-03-15T16:09:11;8.80;88.80
2130;DHT22;1071;52.544;13.374;2023-03-15T16:11:39;8.80;89.60
2130;DHT22;1071;52.544;13.374;2023-03-15T16:14:11;8.70;93.10
2130;DHT22;1071;52.544;13.374;2023-03-15T16:16:38;8.60;97.00
2130;DHT22;1071;52.544;13.374;2023-03-15T16:19:05;8.50;99.90
2130;DHT22;1071;52.544;13.374;2023-03-15T16:21:36;8.50;99.90
2130;DHT22;1071;52.544;13.374;2023-03-15T16:24:08;8.30;99.90
2130;DHT22;1071;52.544;13.374;2023-03-15T16:26:38;8.10;99.90
2130;DHT22;1071;52.544;13.374;2023-03-15T16:29:14;8.00;99.90
2130;DHT22;1071;52.544;13.374;2023-03-15T16:31:42;7.90;99.90